createdAt,value
2023-11-21T00:03:49.656Z,1.73
2023-11-21T00:06:17.575Z,1.60
2023-11-21T00:08:44.408Z,1.15
2023-11-21T00:11:11.248Z,1.17
2023-11-21T00:13:38.782Z,1.70
2023-11-21T00:16:05.942Z,2.08
2023-11-21T00:18:32.745Z,1.83
2023-11-21T00:21:00.344Z,1.52
2023-11-21T00:23:27.272Z,1.45
2023-11-21T00:25:54.129Z,1.70
2023-11-21T00:28:21.129Z,1.58
2023-11-21T00:30:48.836Z,1.30
2023-11-21T00:33:15.801Z,1.77
2023-11-21T00:35:42.740Z,3.03
2023-11-21T00:38:11.057Z,1.10
2023-11-21T00:40:38.927Z,1.50
2023-11-21T00:43:06.732Z,1.27
2023-11-21T00:45:33.641Z,1.55
2023-11-21T00:48:00.602Z,1.70
2023-11-21T00:50:28.266Z,1.77
2023-11-21T00:52:57.195Z,1.30
2023-11-21T00:55:24.168Z,1.65
2023-11-21T00:57:51.734Z,1.42
2023-11-21T01:00:18.994Z,1.42
2023-11-21T01:02:46.171Z,1.90
2023-11-21T01:05:13.296Z,1.27
2023-11-21T01:07:41.126Z,2.13
2023-11-21T01:10:09.223Z,1.25
2023-11-21T01:12:38.152Z,1.08
2023-11-21T01:15:08.414Z,1.85
2023-11-21T01:17:35.547Z,4.28
2023-11-21T01:20:04.221Z,2.00
2023-11-21T01:22:31.142Z,1.33
2023-11-21T01:24:58.912Z,1.70
2023-11-21T01:27:25.765Z,1.73
2023-11-21T01:29:54.650Z,2.65
2023-11-21T01:32:22.660Z,2.00
2023-11-21T01:34:51.692Z,1.50
2023-11-21T01:37:18.700Z,1.92
2023-11-21T01:39:45.633Z,1.58
2023-11-21T01:42:13.871Z,1.90
2023-11-21T01:44:41.332Z,1.92
2023-11-21T01:49:36.896Z,1.73
2023-11-21T01:52:05.501Z,2.30
2023-11-21T01:54:32.702Z,1.33
2023-11-21T01:57:04.090Z,1.52
2023-11-21T01:59:43.634Z,1.73
2023-11-21T02:02:10.759Z,1.42
2023-11-21T02:04:39.305Z,1.92
2023-11-21T02:07:06.415Z,1.52
2023-11-21T02:09:34.868Z,1.17
2023-11-21T02:12:02.167Z,1.75
2023-11-21T02:14:29.306Z,2.03
2023-11-21T02:16:58.293Z,2.30
2023-11-21T02:19:26.703Z,3.15
2023-11-21T02:21:54.405Z,1.50
2023-11-21T02:24:22.415Z,1.35
2023-11-21T02:26:52.464Z,5.20
2023-11-21T02:29:23.066Z,1.63
2023-11-21T02:31:52.645Z,1.83
2023-11-21T02:34:19.660Z,2.30
2023-11-21T02:36:46.566Z,5.65
2023-11-21T02:39:14.252Z,1.40
2023-11-21T02:41:41.456Z,1.80
2023-11-21T02:44:08.414Z,3.15
2023-11-21T02:46:35.898Z,1.88
2023-11-21T02:49:11.295Z,2.05
2023-11-21T02:51:41.030Z,1.70
2023-11-21T02:54:09.228Z,2.72
2023-11-21T02:56:36.429Z,2.67
2023-11-21T02:59:04.370Z,2.00
2023-11-21T03:01:31.392Z,2.38
2023-11-21T03:03:58.389Z,2.10
2023-11-21T03:06:25.398Z,2.10
2023-11-21T03:08:52.233Z,2.63
2023-11-21T03:11:19.300Z,3.88
2023-11-21T03:13:46.274Z,2.58
2023-11-21T03:16:13.943Z,2.90
2023-11-21T03:18:41.205Z,2.28
2023-11-21T03:21:11.784Z,1.88
2023-11-21T03:23:38.719Z,2.17
2023-11-21T03:26:05.783Z,2.25
2023-11-21T03:28:32.692Z,2.58
2023-11-21T03:30:59.536Z,2.20
2023-11-21T03:33:26.441Z,2.85
2023-11-21T03:35:54.085Z,2.13
2023-11-21T03:38:21.466Z,2.83
2023-11-21T03:43:15.687Z,4.07
2023-11-21T03:45:42.724Z,2.67
2023-11-21T03:48:13.165Z,3.38
2023-11-21T03:50:40.093Z,3.03
2023-11-21T03:53:07.381Z,16.70
2023-11-21T03:55:34.428Z,1.85
2023-11-21T03:58:01.429Z,2.47
2023-11-21T04:00:29.160Z,1.92
2023-11-21T04:02:56.179Z,2.95
2023-11-21T04:05:24.194Z,2.38
2023-11-21T04:07:54.557Z,3.05
2023-11-21T04:10:21.698Z,2.92
2023-11-21T04:12:49.436Z,2.55
2023-11-21T04:15:16.497Z,3.47
2023-11-21T04:17:43.761Z,3.33
2023-11-21T04:20:11.639Z,2.72
2023-11-21T04:22:42.151Z,3.17
2023-11-21T04:25:14.319Z,3.78
2023-11-21T04:27:41.839Z,3.30
2023-11-21T04:32:35.821Z,3.08
2023-11-21T04:35:03.069Z,3.67
2023-11-21T04:37:29.943Z,3.58
2023-11-21T04:39:56.874Z,2.33
2023-11-21T04:42:23.687Z,3.83
2023-11-21T04:44:51.173Z,3.95
2023-11-21T04:47:20.297Z,3.53
2023-11-21T04:49:50.690Z,3.35
2023-11-21T04:52:17.591Z,3.45
2023-11-21T04:54:45.413Z,3.45
2023-11-21T04:57:13.173Z,2.55
2023-11-21T04:59:40.029Z,2.80
2023-11-21T05:02:06.971Z,3.15
2023-11-21T05:04:34.057Z,8.90
2023-11-21T05:07:01.912Z,2.63
2023-11-21T05:09:29.288Z,2.70
2023-11-21T05:11:56.137Z,5.22
2023-11-21T05:14:22.978Z,3.90
2023-11-21T05:16:51.974Z,3.72
2023-11-21T05:19:19.040Z,3.45
2023-11-21T05:21:46.156Z,2.85
2023-11-21T05:24:13.002Z,3.53
2023-11-21T05:26:39.843Z,3.65
2023-11-21T05:29:06.739Z,2.67
2023-11-21T05:31:33.624Z,2.08
2023-11-21T05:34:00.520Z,1.77
2023-11-21T05:36:27.403Z,3.03
2023-11-21T05:38:54.227Z,2.83
2023-11-21T05:41:21.094Z,2.28
2023-11-21T05:43:47.943Z,2.58
2023-11-21T05:46:14.795Z,2.92
2023-11-21T05:48:41.704Z,2.28
2023-11-21T05:51:09.488Z,2.08
2023-11-21T05:53:36.688Z,2.85
2023-11-21T05:56:04.979Z,2.50
2023-11-21T05:58:32.261Z,2.70
2023-11-21T06:00:59.136Z,3.00
2023-11-21T06:03:26.329Z,2.50
2023-11-21T06:05:53.340Z,3.55
2023-11-21T06:08:20.159Z,3.13
2023-11-21T06:10:50.208Z,2.20
2023-11-21T06:13:17.295Z,2.55
2023-11-21T06:15:44.240Z,2.45
2023-11-21T06:18:14.908Z,1.88
2023-11-21T06:20:42.426Z,3.05
2023-11-21T06:23:10.382Z,2.05
2023-11-21T06:25:37.908Z,2.38
2023-11-21T06:28:05.135Z,2.63
2023-11-21T06:30:32.014Z,3.30
2023-11-21T06:32:59.059Z,2.72
2023-11-21T06:35:26.059Z,3.80
2023-11-21T06:37:53.292Z,6.07
2023-11-21T06:40:21.506Z,3.72
2023-11-21T06:42:49.254Z,3.47
2023-11-21T06:45:17.455Z,2.53
2023-11-21T06:47:44.876Z,3.85
2023-11-21T06:50:12.247Z,2.13
2023-11-21T06:52:39.698Z,2.55
2023-11-21T06:55:09.286Z,2.33
2023-11-21T06:57:36.346Z,2.88
2023-11-21T07:00:03.808Z,2.53
2023-11-21T07:02:32.083Z,3.30
2023-11-21T07:04:59.083Z,4.25
2023-11-21T07:07:25.987Z,3.75
2023-11-21T07:09:53.073Z,3.00
2023-11-21T07:12:19.972Z,3.78
2023-11-21T07:14:46.778Z,2.90
2023-11-21T07:17:13.729Z,3.92
2023-11-21T07:19:40.746Z,2.95
2023-11-21T07:22:07.698Z,4.57
2023-11-21T07:24:34.757Z,11.57
2023-11-21T07:27:01.999Z,2.95
2023-11-21T07:29:30.905Z,2.97
2023-11-21T07:31:58.250Z,3.28
2023-11-21T07:39:20.047Z,9.48
2023-11-21T07:41:49.948Z,2.17
2023-11-21T07:44:21.294Z,3.00
2023-11-21T07:46:49.040Z,4.47
2023-11-21T07:49:17.234Z,3.00
2023-11-21T07:51:45.184Z,3.70
2023-11-21T07:54:12.741Z,4.03
2023-11-21T07:59:06.669Z,4.30
2023-11-21T08:01:34.145Z,3.92
2023-11-21T08:06:32.336Z,2.50
2023-11-21T08:08:59.560Z,3.10
2023-11-21T08:11:30.177Z,5.13
2023-11-21T08:13:57.755Z,4.85
2023-11-21T08:16:25.230Z,3.20
2023-11-21T08:18:52.593Z,3.75
2023-11-21T08:21:20.316Z,4.45
2023-11-21T08:23:48.377Z,3.78
2023-11-21T08:26:17.738Z,2.83
2023-11-21T08:28:44.699Z,4.95
2023-11-21T08:31:13.344Z,4.25
2023-11-21T08:33:41.248Z,4.25
2023-11-21T08:36:10.016Z,3.95
2023-11-21T08:38:39.780Z,3.80
2023-11-21T08:41:10.295Z,4.28
2023-11-21T08:43:40.496Z,4.70
2023-11-21T08:46:09.655Z,3.60
2023-11-21T08:48:37.493Z,4.07
2023-11-21T08:51:05.695Z,4.90
2023-11-21T08:53:32.556Z,4.82
2023-11-21T08:55:59.783Z,6.55
2023-11-21T08:58:26.897Z,4.13
2023-11-21T09:00:53.850Z,5.47
2023-11-21T09:03:20.849Z,5.18
2023-11-21T09:05:47.814Z,5.25
2023-11-21T09:08:14.655Z,4.70
2023-11-21T09:10:43.377Z,4.95
2023-11-21T09:13:11.253Z,5.38
2023-11-21T09:15:38.318Z,5.20
2023-11-21T09:18:06.242Z,5.15
2023-11-21T09:20:33.173Z,5.68
2023-11-21T09:23:00.157Z,6.55
2023-11-21T09:25:27.272Z,4.97
2023-11-21T09:27:54.226Z,4.35
2023-11-21T09:30:21.755Z,4.50
2023-11-21T09:32:48.846Z,5.60
2023-11-21T09:35:16.300Z,5.07
2023-11-21T09:37:46.370Z,5.00
2023-11-21T09:40:15.246Z,8.45
2023-11-21T09:42:54.421Z,6.15
2023-11-21T09:45:35.164Z,5.93
2023-11-21T09:48:03.031Z,6.07
2023-11-21T09:50:30.006Z,7.60
2023-11-21T09:53:17.656Z,6.15
2023-11-21T09:55:45.712Z,6.78
2023-11-21T09:58:14.006Z,6.72
2023-11-21T10:00:45.829Z,7.15
2023-11-21T10:03:13.891Z,6.47
2023-11-21T10:05:46.854Z,8.45
2023-11-21T10:08:14.506Z,11.73
2023-11-21T10:10:45.971Z,12.43
2023-11-21T10:13:17.533Z,8.30
2023-11-21T10:15:49.607Z,6.97
2023-11-21T10:18:17.329Z,9.60
2023-11-21T10:20:45.625Z,12.00
2023-11-21T10:23:13.879Z,6.60
2023-11-21T10:25:40.762Z,7.57
2023-11-21T10:28:08.074Z,11.38
2023-11-21T10:30:38.110Z,9.88
2023-11-21T10:33:06.349Z,11.07
2023-11-21T10:35:49.630Z,6.28
2023-11-21T10:38:16.582Z,7.85
2023-11-21T10:40:45.747Z,8.07
2023-11-21T10:43:14.150Z,9.13
2023-11-21T10:45:41.583Z,6.97
2023-11-21T10:48:09.967Z,9.77
2023-11-21T10:50:37.158Z,8.43
2023-11-21T10:53:05.287Z,7.43
2023-11-21T10:55:35.938Z,7.47
2023-11-21T10:58:05.721Z,7.35
2023-11-21T11:00:35.590Z,7.53
2023-11-21T11:03:04.329Z,11.82
2023-11-21T11:05:33.485Z,8.40
2023-11-21T11:08:07.766Z,10.15
2023-11-21T11:10:35.344Z,7.68
2023-11-21T11:13:02.339Z,7.78
2023-11-21T11:15:29.696Z,10.25
2023-11-21T11:18:00.002Z,6.20
2023-11-21T11:20:34.406Z,9.80
2023-11-21T11:23:23.097Z,9.00
2023-11-21T11:25:53.123Z,8.60
2023-11-21T11:28:23.321Z,7.28
2023-11-21T11:31:05.967Z,6.15
2023-11-21T11:33:46.123Z,10.68
2023-11-21T11:36:23.201Z,7.53
2023-11-21T11:38:53.696Z,7.88
2023-11-21T11:41:35.278Z,8.25
2023-11-21T11:44:02.809Z,6.72
2023-11-21T11:46:48.840Z,12.55
2023-11-21T11:49:37.596Z,6.68
2023-11-21T11:52:32.958Z,7.53
2023-11-21T11:55:01.652Z,8.70
2023-11-21T11:57:32.765Z,12.38
2023-11-21T12:00:26.082Z,9.02
2023-11-21T12:02:55.600Z,7.53
2023-11-21T12:05:24.200Z,7.38
2023-11-21T12:07:55.160Z,8.40
2023-11-21T12:10:27.481Z,6.88
2023-11-21T12:12:59.582Z,8.90
2023-11-21T12:15:27.865Z,10.77
2023-11-21T12:17:54.776Z,7.63
2023-11-21T12:20:23.477Z,12.45
2023-11-21T12:22:55.273Z,10.05
2023-11-21T12:25:29.807Z,7.97
2023-11-21T12:27:58.241Z,10.80
2023-11-21T12:30:29.168Z,9.68
2023-11-21T12:32:57.227Z,9.27
2023-11-21T12:35:26.443Z,9.40
2023-11-21T12:37:55.578Z,10.52
2023-11-21T12:40:24.137Z,9.77
2023-11-21T12:42:55.629Z,10.45
2023-11-21T12:45:29.043Z,8.90
2023-11-21T12:48:00.806Z,8.25
2023-11-21T12:50:32.805Z,8.52
2023-11-21T12:53:09.820Z,13.90
2023-11-21T12:55:40.264Z,7.40
2023-11-21T12:58:13.747Z,6.65
2023-11-21T13:00:48.231Z,6.68
2023-11-21T13:03:26.768Z,6.00
2023-11-21T13:05:55.895Z,5.85
2023-11-21T13:08:25.045Z,5.45
2023-11-21T13:10:58.795Z,5.50
2023-11-21T13:13:29.441Z,5.30
2023-11-21T13:16:07.399Z,4.53
2023-11-21T13:18:34.714Z,4.97
2023-11-21T13:21:24.361Z,4.40
2023-11-21T13:23:53.794Z,4.18
2023-11-21T13:26:22.720Z,4.45
2023-11-21T13:28:49.711Z,3.80
2023-11-21T13:31:26.848Z,4.35
2023-11-21T13:33:57.745Z,4.25
2023-11-21T13:36:26.411Z,3.50
2023-11-21T13:38:53.817Z,3.83
2023-11-21T13:41:20.918Z,4.20
2023-11-21T13:43:54.839Z,4.35
2023-11-21T13:46:23.644Z,5.18
2023-11-21T13:48:58.000Z,3.42
2023-11-21T13:51:38.565Z,3.85
2023-11-21T13:54:10.206Z,4.53
2023-11-21T13:56:38.157Z,4.55
2023-11-21T13:59:15.858Z,3.45
2023-11-21T14:01:55.472Z,6.18
2023-11-21T14:04:32.502Z,3.20
2023-11-21T14:07:02.451Z,3.47
2023-11-21T14:09:44.595Z,5.07
2023-11-21T14:12:13.523Z,3.35
2023-11-21T14:14:40.550Z,3.42
2023-11-21T14:17:08.384Z,2.97
2023-11-21T14:19:38.020Z,3.83
2023-11-21T14:22:05.176Z,2.95
2023-11-21T14:24:33.293Z,2.83
2023-11-21T14:27:00.971Z,3.25
2023-11-21T14:29:28.691Z,3.15
2023-11-21T14:31:58.195Z,3.30
2023-11-21T14:34:25.370Z,3.25
2023-11-21T14:36:52.237Z,3.80
2023-11-21T14:39:28.538Z,3.85
2023-11-21T14:42:01.442Z,4.70
2023-11-21T14:44:33.669Z,4.65
2023-11-21T14:47:01.520Z,4.72
2023-11-21T14:49:36.596Z,5.15
2023-11-21T14:52:04.844Z,4.25
2023-11-21T14:54:42.329Z,3.83
2023-11-21T14:57:15.319Z,4.20
2023-11-21T14:59:52.709Z,3.97
2023-11-21T15:02:43.245Z,8.57
2023-11-21T15:05:16.036Z,2.72
2023-11-21T15:07:42.974Z,2.78
2023-11-21T15:10:15.570Z,1.63
2023-11-21T15:12:44.670Z,1.58
2023-11-21T15:15:11.970Z,2.55
2023-11-21T15:20:09.800Z,2.60
2023-11-21T15:22:36.960Z,2.40
2023-11-21T15:25:11.047Z,2.20
2023-11-21T15:27:37.969Z,2.63
2023-11-21T15:30:05.449Z,2.28
2023-11-21T15:34:59.381Z,4.10
2023-11-21T15:37:28.746Z,2.78
2023-11-21T15:39:55.704Z,3.88
2023-11-21T15:42:22.729Z,5.22
2023-11-21T15:44:51.306Z,5.03
2023-11-21T15:47:18.245Z,3.40
2023-11-21T15:49:48.625Z,4.50
2023-11-21T15:52:17.260Z,3.95
2023-11-21T15:54:46.550Z,5.13
2023-11-21T15:57:14.162Z,5.13
2023-11-21T15:59:43.277Z,6.40
2023-11-21T16:02:11.683Z,5.18
2023-11-21T16:04:38.875Z,4.10
2023-11-21T16:07:07.966Z,4.40
2023-11-21T16:09:35.186Z,5.40
2023-11-21T16:12:04.528Z,4.88
2023-11-21T16:14:36.730Z,4.72
2023-11-21T16:17:04.414Z,5.65
2023-11-21T16:19:31.999Z,5.85
2023-11-21T16:21:59.090Z,7.10
2023-11-21T16:24:28.822Z,6.18
2023-11-21T16:26:58.580Z,6.45
2023-11-21T16:29:25.592Z,5.47
2023-11-21T16:31:53.423Z,5.03
2023-11-21T16:34:22.784Z,3.85
2023-11-21T16:36:52.439Z,4.63
2023-11-21T16:39:21.117Z,4.65
2023-11-21T16:41:48.568Z,4.55
2023-11-21T16:47:05.536Z,3.95
2023-11-21T16:49:37.888Z,3.55
2023-11-21T16:52:05.334Z,3.80
2023-11-21T16:56:58.998Z,3.38
2023-11-21T16:59:26.283Z,4.15
2023-11-21T17:01:53.379Z,4.05
2023-11-21T17:04:20.399Z,3.00
2023-11-21T17:06:50.590Z,3.47
2023-11-21T17:09:20.777Z,4.18
2023-11-21T17:11:49.531Z,3.03
2023-11-21T17:14:16.869Z,4.38
2023-11-21T17:16:45.522Z,4.72
2023-11-21T17:19:12.639Z,4.30
2023-11-21T17:21:39.503Z,5.07
2023-11-21T17:24:07.089Z,4.57
2023-11-21T17:29:02.262Z,3.58
2023-11-21T17:31:30.030Z,3.85
2023-11-21T17:33:56.921Z,4.07
2023-11-21T17:36:24.357Z,4.18
2023-11-21T17:41:22.577Z,3.70
2023-11-21T17:43:50.135Z,3.50
2023-11-21T17:48:50.496Z,3.65
2023-11-21T17:51:17.415Z,3.78
2023-11-21T17:53:47.789Z,3.83
2023-11-21T17:56:20.073Z,3.17
2023-11-21T17:58:47.386Z,3.92
2023-11-21T18:01:14.503Z,4.15
2023-11-21T18:03:41.688Z,3.28
2023-11-21T18:06:11.732Z,3.75
2023-11-21T18:08:40.757Z,3.72
2023-11-21T18:11:07.683Z,3.85
2023-11-21T18:13:34.690Z,3.75
2023-11-21T18:16:02.060Z,3.63
2023-11-21T18:18:28.981Z,4.47
2023-11-21T18:20:56.047Z,3.17
2023-11-21T18:23:22.976Z,2.67
2023-11-21T18:25:49.837Z,2.75
2023-11-21T18:28:16.672Z,2.53
2023-11-21T18:30:43.702Z,2.92
2023-11-21T18:33:11.275Z,2.88
2023-11-21T18:35:38.380Z,3.33
2023-11-21T18:38:05.238Z,2.38
2023-11-21T18:40:32.098Z,3.53
2023-11-21T18:42:58.996Z,2.47
2023-11-21T18:45:25.841Z,3.17
2023-11-21T18:47:52.680Z,5.95
2023-11-21T18:50:22.194Z,3.33
2023-11-21T18:52:50.737Z,3.53
2023-11-21T18:55:17.748Z,4.03
2023-11-21T18:57:44.693Z,6.43
2023-11-21T19:00:13.417Z,3.83
2023-11-21T19:02:44.003Z,4.80
2023-11-21T19:05:12.198Z,4.30
2023-11-21T19:07:39.501Z,2.92
2023-11-21T19:10:07.412Z,3.72
2023-11-21T19:12:37.101Z,3.55
2023-11-21T19:15:06.669Z,4.65
2023-11-21T19:17:33.995Z,2.72
2023-11-21T19:20:01.576Z,3.15
2023-11-21T19:24:55.382Z,5.90
2023-11-21T19:27:22.207Z,4.25
2023-11-21T19:29:49.104Z,2.97
2023-11-21T19:32:16.266Z,3.25
2023-11-21T19:34:43.352Z,3.38
2023-11-21T19:37:10.480Z,3.10
2023-11-21T19:39:37.318Z,3.45
2023-11-21T19:42:04.615Z,3.25
2023-11-21T19:44:32.000Z,3.65
2023-11-21T19:49:26.987Z,2.60
2023-11-21T19:51:53.917Z,2.83
2023-11-21T19:54:21.034Z,3.33
2023-11-21T19:56:47.937Z,3.42
2023-11-21T19:59:17.037Z,2.45
2023-11-21T20:01:44.204Z,2.92
2023-11-21T20:04:12.077Z,5.53
2023-11-21T20:06:48.673Z,4.35
2023-11-21T20:09:21.222Z,3.33
2023-11-21T20:11:51.645Z,3.67
2023-11-21T20:14:18.897Z,4.05
2023-11-21T20:16:47.826Z,3.95
2023-11-21T20:19:14.784Z,2.97
2023-11-21T20:21:41.677Z,3.03
2023-11-21T20:24:09.147Z,2.15
2023-11-21T20:29:02.826Z,4.85
2023-11-21T20:31:29.782Z,3.25
2023-11-21T20:33:56.742Z,7.13
2023-11-21T20:36:24.029Z,3.35
2023-11-21T20:38:51.012Z,2.75
2023-11-21T20:41:18.888Z,3.67
2023-11-21T20:43:45.800Z,3.35
2023-11-21T20:46:12.717Z,4.15
2023-11-21T20:48:39.754Z,4.47
2023-11-21T20:51:06.797Z,3.35
2023-11-21T20:53:33.637Z,4.32
2023-11-21T20:56:02.593Z,3.25
2023-11-21T20:58:29.607Z,3.75
2023-11-21T21:00:56.597Z,4.32
2023-11-21T21:03:24.959Z,3.90
2023-11-21T21:05:51.939Z,3.17
2023-11-21T21:08:18.897Z,4.75
2023-11-21T21:10:45.851Z,9.50
2023-11-21T21:13:14.625Z,3.67
2023-11-21T21:15:41.609Z,2.90
2023-11-21T21:18:08.618Z,2.40
2023-11-21T21:20:37.054Z,2.88
2023-11-21T21:23:04.043Z,4.65
2023-11-21T21:25:31.715Z,2.00
2023-11-21T21:28:00.355Z,2.72
2023-11-21T21:30:28.704Z,3.63
2023-11-21T21:32:58.315Z,3.00
2023-11-21T21:35:29.661Z,3.55
2023-11-21T21:37:59.592Z,3.30
2023-11-21T21:40:27.403Z,2.85
2023-11-21T21:42:56.850Z,3.33
2023-11-21T21:45:23.795Z,3.08
2023-11-21T21:47:51.413Z,3.35
2023-11-21T21:50:20.237Z,3.25
2023-11-21T21:52:47.930Z,3.40
2023-11-21T21:55:14.924Z,3.28
2023-11-21T21:57:42.333Z,3.28
2023-11-21T22:02:41.437Z,5.40
2023-11-21T22:05:14.549Z,3.25
2023-11-21T22:07:41.949Z,2.97
2023-11-21T22:10:09.434Z,3.15
2023-11-21T22:17:30.544Z,2.58
2023-11-21T22:19:57.576Z,4.97
2023-11-21T22:22:25.240Z,2.90
2023-11-21T22:24:52.228Z,6.97
2023-11-21T22:27:19.794Z,2.95
2023-11-21T22:29:46.647Z,3.40
2023-11-21T22:32:13.618Z,1.77
2023-11-21T22:34:40.509Z,2.45
2023-11-21T22:37:07.399Z,3.60
2023-11-21T22:39:34.276Z,2.88
2023-11-21T23:14:41.891Z,2.83
2023-11-21T23:17:09.347Z,3.53
2023-11-21T23:22:15.571Z,3.40
2023-11-21T23:24:42.440Z,3.17
2023-11-21T23:27:09.621Z,2.65
2023-11-21T23:29:38.833Z,3.03
2023-11-21T23:32:07.027Z,2.58
2023-11-21T23:34:33.893Z,2.47
2023-11-21T23:37:00.704Z,1.60
2023-11-21T23:39:27.616Z,2.55
2023-11-21T23:41:54.420Z,2.78
2023-11-21T23:44:21.972Z,2.50
2023-11-21T23:49:16.326Z,2.38
2023-11-21T23:51:43.160Z,3.15
2023-11-21T23:54:11.401Z,2.92
2023-11-21T23:56:38.233Z,2.67
2023-11-21T23:59:05.192Z,3.03
